Airport ID:KRTS
Update Time (UTC):16/10/2019 17:22
Wind Speed (Knots):1
Wind Direction (Magnetic):280
Temperature (°C):12
Dew Point (°C):-6
Humidity (%):27
Altimeter (inHg):30.13
Density Altitude (Feet):
Visibility (Miles):10+
Clouds (Hundreds of feet):CLR
Present Weather:
METAR:METAR KRTS 161720Z AUTO 00000KT 10SM CLR 12/M06 A3013 RMK AO2

The data displayed is for advisory purposes only and is not to be used for flight planning or operations.

This page is not automatically refreshed. Reload the page to see current data.